Time;durP1;ratioP1;P1;durP2;ratioP2;P2;SDS_P1;SDS_P2;PMS_P1;PMS_P2;Temp;Humidity;BMP_temperature;BMP_pressure;BME280_temperature;BME280_humidity;BME280_pressure;Samples;Min_cycle;Max_cycle;Signal;HPM_P1;HPM_P2
2022/11/06 00:01:18;;;;;;;20.50;18.70;;;;;;;22.05;41.32;94593.53;5970869;29;103319;-65
2022/11/06 00:04:21;;;;;;;20.20;18.30;;;;;;;22.03;41.26;94599.16;5975410;29;104958;-66
2022/11/06 00:07:23;;;;;;;20.53;18.63;;;;;;;22.06;41.34;94593.19;5971080;29;103732;-66
2022/11/06 00:10:26;;;;;;;21.07;19.17;;;;;;;22.05;40.82;94604.97;5980584;29;107114;-66
2022/11/06 00:13:31;;;;;;;22.17;20.13;;;;;;;22.02;40.96;94599.47;5971273;29;104904;-65
2022/11/06 00:16:34;;;;;;;20.30;18.43;;;;;;;22.00;40.92;94599.78;5982078;29;103864;-66
2022/11/06 00:19:37;;;;;;;20.70;18.90;;;;;;;22.01;41.05;94600.56;5974997;29;104422;-66
2022/11/06 00:22:40;;;;;;;21.87;19.80;;;;;;;22.01;41.45;94603.22;5977192;29;106240;-67
2022/11/06 00:25:43;;;;;;;21.70;19.70;;;;;;;22.01;41.22;94608.56;5961881;29;103774;-66
2022/11/06 00:28:47;;;;;;;20.83;18.83;;;;;;;21.99;40.94;94606.19;5977357;29;104697;-67
2022/11/06 00:31:50;;;;;;;22.70;20.53;;;;;;;21.97;41.17;94599.63;5971962;29;104227;-67
2022/11/06 00:34:53;;;;;;;21.47;19.57;;;;;;;21.95;41.19;94602.59;5970110;29;104371;-66
2022/11/06 00:37:56;;;;;;;21.63;19.70;;;;;;;21.95;41.09;94599.94;5962038;29;104996;-66
2022/11/06 00:41:02;;;;;;;21.70;19.73;;;;;;;21.89;41.46;94595.09;5970696;29;104410;-66
2022/11/06 00:44:07;;;;;;;22.37;20.30;;;;;;;21.92;40.93;94605.13;5970774;29;104072;-66
2022/11/06 00:47:10;;;;;;;22.60;20.53;;;;;;;21.90;41.03;94591.34;5970959;29;104962;-66
2022/11/06 00:50:13;;;;;;;22.70;20.60;;;;;;;21.93;41.36;94599.47;5959843;29;103883;-66
2022/11/06 00:53:16;;;;;;;23.23;21.03;;;;;;;21.91;41.12;94598.22;5970608;29;103769;-66
2022/11/06 00:56:20;;;;;;;23.00;20.90;;;;;;;21.87;41.19;94595.44;5970626;29;103875;-66
2022/11/06 00:59:24;;;;;;;23.53;21.43;;;;;;;21.87;41.06;94592.75;5964489;29;104315;-66
2022/11/06 01:02:27;;;;;;;24.47;22.27;;;;;;;21.86;40.95;94593.84;5964574;29;103883;-66
2022/11/06 01:05:31;;;;;;;24.43;22.23;;;;;;;21.87;40.96;94595.44;5960588;29;103653;-66
2022/11/06 01:08:34;;;;;;;24.23;22.03;;;;;;;21.85;40.85;94594.19;5969751;29;103753;-67
2022/11/06 01:11:39;;;;;;;24.17;22.00;;;;;;;21.85;41.22;94586.19;5969760;29;103915;-66
2022/11/06 01:15:03;;;;;;;25.27;22.93;;;;;;;21.83;40.74;94583.03;5971572;29;103360;-66
2022/11/06 01:18:06;;;;;;;24.33;22.23;;;;;;;21.84;41.16;94587.25;5992751;29;103925;-66
2022/11/06 01:21:13;;;;;;;25.00;22.80;;;;;;;21.83;41.08;94578.47;5987726;29;103896;-66
2022/11/06 01:24:18;;;;;;;26.27;23.87;;;;;;;21.83;40.73;94578.47;5960036;29;103784;-66
2022/11/06 01:27:21;;;;;;;23.87;21.77;;;;;;;21.83;41.00;94577.69;5970616;29;103161;-66
2022/11/06 01:30:30;;;;;;;25.20;22.93;;;;;;;21.80;40.62;94573.75;5977488;29;103708;-66
2022/11/06 01:33:33;;;;;;;24.97;22.40;;;;;;;21.81;40.79;94578.00;5986157;29;103310;-66
2022/11/06 01:36:36;;;;;;;24.57;22.43;;;;;;;21.77;41.02;94571.72;5969319;29;104449;-66
2022/11/06 01:39:39;;;;;;;25.60;23.10;;;;;;;21.77;41.16;94572.50;5966021;29;104025;-66
2022/11/06 01:42:42;;;;;;;25.60;23.30;;;;;;;21.78;41.21;94581.28;5965420;29;106519;-66
2022/11/06 01:45:49;;;;;;;25.77;23.37;;;;;;;21.77;41.19;94582.38;5960746;29;104321;-66
2022/11/06 01:48:57;;;;;;;27.13;24.73;;;;;;;21.75;40.74;94581.91;5970914;29;103820;-66
2022/11/06 01:52:04;;;;;;;26.13;23.63;;;;;;;21.72;41.16;94580.66;5969957;29;103699;-65
2022/11/06 01:55:11;;;;;;;25.57;23.30;;;;;;;21.75;41.15;94572.06;5971540;29;103839;-66
2022/11/06 01:58:17;;;;;;;26.90;24.53;;;;;;;21.77;41.03;94577.06;5960673;29;104869;-66
2022/11/06 02:01:22;;;;;;;25.13;22.93;;;;;;;21.73;41.15;94568.13;5972549;29;104155;-66
2022/11/06 02:04:28;;;;;;;25.63;23.33;;;;;;;21.72;41.00;94562.03;5983295;29;103942;-66
2022/11/06 02:07:33;;;;;;;25.43;23.03;;;;;;;21.74;40.96;94570.47;5971124;29;107922;-66
2022/11/06 02:10:36;;;;;;;26.27;24.07;;;;;;;21.72;40.98;94578.00;5954850;29;103478;-66
2022/11/06 02:13:58;;;;;;;25.80;23.47;;;;;;;21.73;41.12;94574.25;5972370;29;103765;-66
2022/11/06 02:17:09;;;;;;;27.90;25.43;;;;;;;21.71;40.91;94560.47;5973509;29;104376;-66
2022/11/06 02:20:21;;;;;;;26.23;23.87;;;;;;;21.71;40.83;94575.66;5951919;29;104085;-66
2022/11/06 02:23:59;;;;;;;27.10;24.60;;;;;;;21.70;40.91;94574.88;5972976;29;104254;-66
2022/11/06 02:27:10;;;;;;;25.87;23.63;;;;;;;21.70;40.77;94569.56;5958192;29;103642;-66
2022/11/06 02:30:15;;;;;;;26.13;23.93;;;;;;;21.71;40.97;94579.09;5972341;29;105199;-66
2022/11/06 02:33:26;;;;;;;25.00;22.70;;;;;;;21.72;40.69;94566.56;5963204;29;103914;-65
2022/11/06 02:36:34;;;;;;;27.17;24.67;;;;;;;21.66;40.99;94565.16;5976190;29;103907;-65
2022/11/06 02:39:40;;;;;;;26.00;23.63;;;;;;;21.64;41.01;94564.69;5978975;29;103858;-66
2022/11/06 02:42:50;;;;;;;26.90;24.40;;;;;;;21.67;40.74;94569.38;5969411;29;103745;-66
2022/11/06 02:45:57;;;;;;;26.30;23.80;;;;;;;21.69;40.67;94575.19;5994705;29;106251;-66
2022/11/06 02:49:04;;;;;;;25.27;23.00;;;;;;;21.68;41.17;94570.97;5982458;29;103881;-67
2022/11/06 02:52:12;;;;;;;24.37;22.37;;;;;;;21.64;41.37;94581.44;5994822;29;103948;-67
2022/11/06 02:55:20;;;;;;;24.67;22.47;;;;;;;21.66;40.93;94584.56;5963349;29;103528;-65
2022/11/06 02:58:31;;;;;;;24.30;22.13;;;;;;;21.65;40.63;94598.97;5972939;29;103962;-65
2022/11/06 03:01:37;;;;;;;23.63;21.53;;;;;;;21.65;40.58;94592.88;5971395;29;103777;-66
2022/11/06 03:04:46;;;;;;;23.77;21.57;;;;;;;21.65;41.07;94587.56;5971499;29;103863;-65
2022/11/06 03:07:55;;;;;;;23.20;21.00;;;;;;;21.65;40.90;94608.84;5962869;29;104122;-65
2022/11/06 03:11:06;;;;;;;24.30;22.20;;;;;;;21.62;41.20;94604.16;5972851;29;103863;-65
2022/11/06 03:14:18;;;;;;;23.37;21.23;;;;;;;21.64;40.99;94599.31;5972493;29;103931;-65
2022/11/06 03:17:29;;;;;;;23.73;21.63;;;;;;;21.64;40.74;94604.63;5965488;29;104177;-65
2022/11/06 03:20:37;;;;;;;22.77;20.87;;;;;;;21.65;40.68;94606.97;5959713;29;103789;-65
2022/11/06 03:23:44;;;;;;;22.90;20.90;;;;;;;21.64;40.96;94607.28;5995228;29;103859;-65
2022/11/06 03:26:50;;;;;;;22.00;20.03;;;;;;;21.63;41.28;94613.72;5980928;29;103769;-65
2022/11/06 03:30:03;;;;;;;22.00;20.00;;;;;;;21.62;41.03;94614.81;5985123;29;103988;-65
2022/11/06 03:33:13;;;;;;;22.07;20.17;;;;;;;21.62;41.02;94620.13;5987455;29;106507;-65
2022/11/06 03:36:21;;;;;;;21.90;19.80;;;;;;;21.60;41.24;94623.13;5971699;29;103873;-64
2022/11/06 03:39:31;;;;;;;20.00;18.17;;;;;;;21.61;40.64;94629.22;5972274;29;104029;-65
2022/11/06 03:42:38;;;;;;;20.63;18.83;;;;;;;21.60;41.43;94625.00;5971836;29;103887;-65
2022/11/06 03:45:44;;;;;;;19.87;18.07;;;;;;;21.58;41.33;94624.53;5977589;29;103843;-65
2022/11/06 03:48:52;;;;;;;20.70;18.80;;;;;;;21.58;40.74;94624.53;5971748;29;104543;-64
2022/11/06 03:52:00;;;;;;;19.77;18.07;;;;;;;21.56;41.13;94614.19;5964248;29;104684;-65
2022/11/06 03:55:07;;;;;;;19.10;17.30;;;;;;;21.56;40.80;94616.84;5972941;29;103889;-65
2022/11/06 03:58:14;;;;;;;19.73;17.97;;;;;;;21.60;40.66;94614.34;5971606;29;104155;-65
2022/11/06 04:01:24;;;;;;;20.27;18.40;;;;;;;21.56;41.11;94616.84;5962497;29;106121;-65
2022/11/06 04:04:30;;;;;;;19.83;18.13;;;;;;;21.55;40.91;94620.63;5962931;29;103672;-65
2022/11/06 04:07:36;;;;;;;19.47;17.77;;;;;;;21.55;41.25;94606.50;5971401;29;103935;-65
2022/11/06 04:14:08;;;;;;;17.93;16.33;;;;;;;21.56;40.93;94624.84;5966951;29;104293;-65
2022/11/06 04:17:14;;;;;;;17.20;15.80;;;;;;;21.55;41.25;94633.13;5966535;29;103763;-64
2022/11/06 04:26:34;;;;;;;17.43;15.83;;;;;;;21.52;40.95;94622.03;5973410;29;104013;-65
2022/11/06 04:27:28;;;;;;;18.47;16.90;;;;;;;21.51;41.51;94619.69;5962971;29;103943;-65
2022/11/06 04:30:39;;;;;;;17.17;15.57;;;;;;;21.50;41.45;94621.53;5971361;29;103870;-65
2022/11/06 04:33:54;;;;;;;16.47;14.87;;;;;;;21.48;41.35;94626.38;5971350;29;103806;-65
2022/11/06 04:37:06;;;;;;;16.20;14.80;;;;;;;21.54;41.24;94628.91;5983353;29;103702;-65
2022/11/06 04:40:13;;;;;;;16.73;15.13;;;;;;;21.51;41.30;94640.97;5947470;29;104061;-65
2022/11/06 04:43:27;;;;;;;16.20;14.70;;;;;;;21.52;41.53;94632.66;5970812;29;104163;-65
2022/11/06 04:46:35;;;;;;;16.03;14.63;;;;;;;21.50;41.04;94626.84;5970413;29;103684;-64
2022/11/06 04:49:42;;;;;;;15.23;13.93;;;;;;;21.51;41.35;94630.31;5963905;29;104825;-65
2022/11/06 04:52:45;;;;;;;15.53;14.13;;;;;;;21.49;41.30;94635.94;5970530;29;103872;-64
2022/11/06 04:55:51;;;;;;;15.00;13.60;;;;;;;21.52;41.40;94632.66;5971326;29;104212;-63
2022/11/06 04:58:54;;;;;;;15.70;14.10;;;;;;;21.51;41.94;94639.09;5969331;29;103743;-64
2022/11/06 05:01:57;;;;;;;14.60;13.40;;;;;;;21.50;41.62;94628.72;5965251;29;103792;-64
2022/11/06 05:05:02;;;;;;;14.70;13.30;;;;;;;21.50;41.66;94639.38;5968174;29;104070;-64
2022/11/06 05:08:05;;;;;;;14.63;13.23;;;;;;;21.48;41.64;94647.69;5970171;29;105938;-65
2022/11/06 05:11:08;;;;;;;15.73;14.23;;;;;;;21.47;41.62;94646.13;5963585;29;103903;-64
2022/11/06 05:14:11;;;;;;;13.90;12.60;;;;;;;21.49;41.76;94659.09;5963067;29;104725;-64
2022/11/06 05:17:14;;;;;;;15.23;13.83;;;;;;;21.48;41.78;94661.00;5977583;29;103985;-63
2022/11/06 05:20:19;;;;;;;14.40;13.00;;;;;;;21.47;41.79;94655.97;5963596;29;104201;-64
2022/11/06 05:23:21;;;;;;;14.67;13.20;;;;;;;21.49;41.92;94669.75;5959522;29;104070;-64
2022/11/06 05:26:24;;;;;;;12.93;11.83;;;;;;;21.45;41.88;94666.94;5948141;29;104043;-65
2022/11/06 05:29:28;;;;;;;12.80;11.70;;;;;;;21.44;41.75;94668.03;5971930;29;103668;-66
2022/11/06 05:32:31;;;;;;;13.27;12.17;;;;;;;21.45;42.15;94672.25;5972142;29;103147;-65
2022/11/06 05:35:35;;;;;;;14.67;11.90;;;;;;;21.44;42.13;94680.56;5959688;29;103709;-68
2022/11/06 05:38:38;;;;;;;12.13;10.73;;;;;;;21.44;41.80;94683.22;5977158;29;103403;-69
2022/11/06 05:41:42;;;;;;;13.60;12.20;;;;;;;21.34;42.24;94684.31;5970195;29;104228;-68
2022/11/06 05:44:45;;;;;;;11.17;10.10;;;;;;;21.25;42.22;94688.03;5985139;29;103947;-69
2022/11/06 05:47:48;;;;;;;13.93;10.60;;;;;;;21.18;42.54;94688.50;5976124;29;103925;-68
2022/11/06 05:50:52;;;;;;;10.43;9.53;;;;;;;21.15;42.55;94692.53;5972246;29;104204;-69
2022/11/06 05:53:55;;;;;;;10.57;9.50;;;;;;;21.12;42.57;94697.69;5979275;29;103684;-69
2022/11/06 05:56:59;;;;;;;10.37;9.37;;;;;;;21.12;42.77;94708.31;5968701;29;103817;-70
2022/11/06 06:00:03;;;;;;;9.33;7.83;;;;;;;20.87;43.32;94715.09;5958599;29;103766;-70
2022/11/06 06:03:06;;;;;;;9.73;8.63;;;;;;;20.89;43.06;94712.91;5973402;29;103798;-69
2022/11/06 06:06:11;;;;;;;10.60;8.80;;;;;;;20.53;44.24;94711.13;5974380;29;103651;-70
2022/11/06 06:09:14;;;;;;;9.27;8.37;;;;;;;20.63;44.19;94718.06;5969686;29;103731;-70
2022/11/06 06:12:17;;;;;;;11.20;9.80;;;;;;;20.39;44.51;94712.28;5983837;29;103766;-69
2022/11/06 06:15:20;;;;;;;11.40;8.60;;;;;;;20.34;44.51;94717.72;5979849;29;103803;-65
2022/11/06 06:18:23;;;;;;;23.10;9.50;;;;;;;20.54;44.69;94722.56;5973148;29;103748;-65
2022/11/06 06:21:28;;;;;;;10.77;8.90;;;;;;;20.55;44.46;94732.09;5973106;29;103966;-66
2022/11/06 06:24:31;;;;;;;17.10;14.83;;;;;;;20.52;44.27;94744.13;5990028;29;103766;-66
2022/11/06 06:27:36;;;;;;;13.37;9.20;;;;;;;20.46;45.52;94744.53;5985096;29;103718;-65
2022/11/06 06:30:39;;;;;;;9.40;8.60;;;;;;;20.88;45.32;94745.91;5989931;29;103850;-64
2022/11/06 06:33:42;;;;;;;9.77;8.87;;;;;;;20.84;44.24;94748.41;5968190;29;103704;-64
2022/11/06 06:36:48;;;;;;;19.93;10.83;;;;;;;;;;5985458;29;103718;-64
2022/11/06 06:39:51;;;;;;;13.97;9.20;;;;;;;20.99;43.87;94754.38;5989198;29;105836;-64
2022/11/06 06:42:56;;;;;;;15.87;10.50;;;;;;;21.02;43.87;94751.16;5981341;29;103679;-65
2022/11/06 06:45:59;;;;;;;14.53;10.33;;;;;;;21.01;44.02;94768.19;5968873;29;103664;-68
2022/11/06 06:49:03;;;;;;;22.33;18.53;;;;;;;20.93;44.16;94770.50;5975143;29;103714;-69
2022/11/06 06:52:07;;;;;;;17.90;14.20;;;;;;;21.02;44.53;94764.44;5980547;29;103891;-69
2022/11/06 06:55:10;;;;;;;17.77;14.70;;;;;;;21.15;44.83;94768.91;5974105;29;103983;-68
2022/11/06 06:58:13;;;;;;;17.73;15.13;;;;;;;21.20;43.69;94766.13;5972783;29;104105;-69
2022/11/06 07:01:20;;;;;;;18.30;15.07;;;;;;;21.23;43.48;94773.50;5975767;29;103829;-69
2022/11/06 07:04:23;;;;;;;15.07;12.20;;;;;;;21.20;43.59;94774.91;5986064;29;103698;-69
2022/11/06 07:07:28;;;;;;;16.37;11.40;;;;;;;21.25;43.21;94773.19;5964992;29;104071;-68
2022/11/06 07:10:31;;;;;;;16.13;11.03;;;;;;;21.31;43.57;94783.38;5973020;29;104164;-68
2022/11/06 07:13:35;;;;;;;17.57;11.97;;;;;;;21.32;44.21;94787.59;5992069;29;104360;-68
2022/11/06 07:16:38;;;;;;;14.50;11.23;;;;;;;21.28;45.27;94786.66;5972828;29;104232;-68
2022/11/06 07:19:41;;;;;;;18.67;10.20;;;;;;;21.31;46.76;94786.03;5958824;29;103792;-68
2022/11/06 07:22:46;;;;;;;15.53;10.93;;;;;;;21.31;45.08;94786.03;5971767;29;103661;-68
2022/11/06 07:25:52;;;;;;;19.50;11.33;;;;;;;21.27;46.36;94794.94;5970623;29;103827;-69
2022/11/06 07:28:55;;;;;;;15.17;12.60;;;;;;;20.97;45.43;94796.47;5968995;29;106769;-67
2022/11/06 07:31:58;;;;;;;13.47;11.03;;;;;;;21.15;45.10;94803.50;5966298;29;103877;-68
2022/11/06 07:35:01;;;;;;;12.73;11.23;;;;;;;21.19;45.12;94801.81;5972868;29;103525;-68
2022/11/06 07:38:06;;;;;;;19.67;11.30;;;;;;;21.19;45.58;94797.28;5973280;29;104609;-67
2022/11/06 07:41:11;;;;;;;12.50;10.70;;;;;;;21.28;44.83;94801.84;5963232;29;104326;-70
2022/11/06 07:44:14;;;;;;;12.50;11.30;;;;;;;21.32;44.74;94803.56;5970917;29;103784;-68
2022/11/06 07:47:17;;;;;;;15.70;13.40;;;;;;;21.38;44.35;94810.34;5969599;29;103720;-68
2022/11/06 07:50:20;;;;;;;15.33;11.00;;;;;;;21.36;44.36;94809.88;5971358;29;103723;-68
2022/11/06 07:53:25;;;;;;;13.10;11.60;;;;;;;21.35;44.04;94805.66;5962558;29;103761;-68
2022/11/06 07:56:28;;;;;;;13.37;11.93;;;;;;;21.32;43.62;94811.56;5971422;29;103718;-68
2022/11/06 07:59:33;;;;;;;13.50;12.20;;;;;;;21.33;43.97;94813.13;5971717;29;104242;-68
2022/11/06 08:02:36;;;;;;;21.33;18.47;;;;;;;21.36;43.48;94815.19;5971591;29;103739;-69
2022/11/06 08:05:39;;;;;;;27.70;22.70;;;;;;;21.35;43.57;94813.63;5962126;29;103862;-69
2022/11/06 08:08:44;;;;;;;18.00;16.10;;;;;;;21.34;44.37;94814.72;5970432;29;103942;-69
2022/11/06 08:11:48;;;;;;;17.03;15.33;;;;;;;21.39;44.15;94825.22;5968430;29;104102;-70
2022/11/06 08:14:51;;;;;;;17.20;14.77;;;;;;;21.40;44.26;94818.03;5966064;29;104200;-68
2022/11/06 08:17:54;;;;;;;15.57;13.97;;;;;;;21.41;45.19;94828.38;5966209;29;104106;-69
2022/11/06 08:20:57;;;;;;;16.73;14.47;;;;;;;21.41;44.99;94825.72;5971623;29;103654;-69
2022/11/06 08:24:02;;;;;;;16.57;15.07;;;;;;;21.43;45.74;94826.19;5971869;29;103885;-69
2022/11/06 08:27:05;;;;;;;21.77;15.47;;;;;;;21.46;45.01;94830.88;5956847;29;104293;-68
2022/11/06 08:30:09;;;;;;;18.53;15.10;;;;;;;21.41;46.97;94840.91;5971256;29;103743;-68
2022/11/06 08:33:12;;;;;;;16.43;14.93;;;;;;;21.37;45.82;94847.94;5971252;29;103428;-69
2022/11/06 08:36:16;;;;;;;16.40;14.47;;;;;;;21.42;45.87;94843.25;5971972;29;103902;-68
2022/11/06 08:39:20;;;;;;;15.43;13.93;;;;;;;21.44;46.07;94845.59;5961669;29;104035;-69
2022/11/06 08:42:23;;;;;;;14.83;12.30;;;;;;;21.44;45.84;94851.72;5971987;29;103906;-69
2022/11/06 08:45:27;;;;;;;12.90;11.73;;;;;;;21.44;45.73;94846.38;5956699;29;103974;-68
2022/11/06 08:48:30;;;;;;;13.37;12.07;;;;;;;21.47;47.61;94853.75;5949480;29;103683;-68
2022/11/06 08:51:33;;;;;;;13.63;12.50;;;;;;;21.48;47.15;94860.66;5965080;29;104111;-68
2022/11/06 08:54:37;;;;;;;13.50;12.10;;;;;;;21.49;46.88;94858.78;5970757;29;103637;-68
2022/11/06 08:57:40;;;;;;;12.77;11.53;;;;;;;21.50;48.04;94863.00;5971505;29;103774;-69
2022/11/06 09:00:44;;;;;;;12.47;11.27;;;;;;;21.45;46.05;94863.94;5960989;29;103304;-69
2022/11/06 09:03:47;;;;;;;12.87;11.67;;;;;;;21.17;46.60;94875.81;5949337;29;103955;-68
2022/11/06 09:06:50;;;;;;;11.93;10.83;;;;;;;20.94;46.98;94867.03;5968881;29;105949;-69
2022/11/06 09:09:54;;;;;;;11.10;10.10;;;;;;;20.96;46.56;94864.06;5969447;29;106165;-68
2022/11/06 09:12:59;;;;;;;12.17;10.97;;;;;;;21.03;48.23;94859.91;5961469;29;104192;-68
2022/11/06 09:16:02;;;;;;;13.10;12.00;;;;;;;21.27;48.28;94864.16;5958017;29;103806;-70
2022/11/06 09:19:05;;;;;;;16.70;15.20;;;;;;;21.36;47.63;94868.44;5970226;29;104586;-69
2022/11/06 09:22:08;;;;;;;25.80;23.53;;;;;;;21.41;48.05;94865.63;5970514;29;103836;-69
2022/11/06 09:25:14;;;;;;;31.47;28.60;;;;;;;21.44;48.08;94865.03;5959783;29;103669;-67
2022/11/06 09:28:17;;;;;;;37.30;34.00;;;;;;;21.48;48.80;94867.84;5969750;29;107493;-69
2022/11/06 09:31:20;;;;;;;32.37;29.53;;;;;;;21.49;47.49;94867.53;5968840;29;103909;-69
2022/11/06 09:34:23;;;;;;;36.30;33.00;;;;;;;21.51;49.04;94868.06;5970434;29;103740;-68
2022/11/06 09:37:26;;;;;;;34.13;30.83;;;;;;;21.52;48.33;94863.50;5955984;29;103931;-71
2022/11/06 09:40:34;;;;;;;37.17;33.67;;;;;;;21.54;50.24;94869.31;5970876;29;103787;-70
2022/11/06 09:43:50;;;;;;;37.53;34.20;;;;;;;21.60;51.28;94868.06;5969655;29;103894;-71
2022/11/06 09:47:15;;;;;;;39.20;35.13;;;;;;;21.62;51.78;94881.88;5960281;29;104161;-71
2022/11/06 09:50:24;;;;;;;39.43;36.00;;;;;;;21.54;51.17;94866.66;5970610;29;103825;-71
2022/11/06 09:53:34;;;;;;;37.87;34.27;;;;;;;21.58;50.66;94872.16;5969586;29;103688;-71
2022/11/06 09:56:41;;;;;;;37.53;33.93;;;;;;;21.57;49.69;94873.22;5970683;29;103695;-72
2022/11/06 09:59:45;;;;;;;40.97;37.17;;;;;;;21.63;51.73;94874.66;5959103;29;104468;-71
2022/11/06 10:02:51;;;;;;;40.53;37.07;;;;;;;21.72;53.56;94859.53;5969126;29;103796;-71
2022/11/06 10:05:54;;;;;;;40.63;36.53;;;;;;;21.75;53.86;94865.00;5969109;29;104063;-71
2022/11/06 10:09:01;;;;;;;38.60;35.30;;;;;;;21.76;54.07;94855.94;5970549;29;103525;-71
2022/11/06 10:12:17;;;;;;;38.87;35.20;;;;;;;21.76;53.16;94866.59;5960897;29;103900;-71
2022/11/06 10:15:25;;;;;;;35.27;32.07;;;;;;;21.71;53.79;94866.72;5964233;29;104141;-70
2022/11/06 10:18:43;;;;;;;35.37;32.17;;;;;;;21.77;53.64;94860.16;5966235;29;103374;-72
2022/11/06 10:21:48;;;;;;;31.77;28.80;;;;;;;21.92;53.01;94861.66;5954254;29;103879;-71
2022/11/06 10:25:00;;;;;;;31.50;28.20;;;;;;;21.93;53.01;94860.56;5969841;29;104189;-70
2022/11/06 10:28:15;;;;;;;28.47;25.87;;;;;;;21.91;53.48;94868.06;5969842;29;103924;-71
2022/11/06 10:31:30;;;;;;;27.90;25.20;;;;;;;21.85;53.97;94864.00;5969685;29;103632;-70
2022/11/06 10:34:38;;;;;;;26.47;23.97;;;;;;;21.86;53.39;94865.56;5963204;29;103879;-71
2022/11/06 10:37:49;;;;;;;26.37;23.70;;;;;;;21.81;53.21;94863.78;5973485;29;103846;-70
2022/11/06 10:40:53;;;;;;;25.53;22.90;;;;;;;21.75;52.00;94862.34;5973816;29;103886;-70
2022/11/06 10:44:02;;;;;;;27.23;22.20;;;;;;;21.71;51.11;94863.28;5969770;29;103840;-70
2022/11/06 10:47:15;;;;;;;23.73;20.37;;;;;;;21.73;51.99;94863.75;5968145;29;103199;-71
2022/11/06 10:50:19;;;;;;;19.83;17.93;;;;;;;21.74;51.67;94860.00;5961968;29;103894;-71
2022/11/06 10:53:33;;;;;;;19.33;17.63;;;;;;;21.75;52.33;94866.91;5973758;29;103594;-70
2022/11/06 10:57:01;;;;;;;18.23;16.53;;;;;;;21.73;52.60;94872.53;5964917;29;103685;-69
2022/11/06 11:00:11;;;;;;;13.93;12.70;;;;;;;21.71;49.49;94876.59;5972094;29;103987;-70
2022/11/06 11:03:22;;;;;;;15.90;14.47;;;;;;;21.71;52.42;94874.72;5973775;29;103720;-70
2022/11/06 11:06:25;;;;;;;14.70;13.40;;;;;;;21.71;50.86;94879.25;5973982;29;103729;-68
2022/11/06 11:09:30;;;;;;;16.93;13.00;;;;;;;21.70;51.39;94875.81;5964214;29;104555;-70
2022/11/06 11:12:33;;;;;;;10.77;9.67;;;;;;;21.65;49.10;94873.25;5973194;29;103864;-69
2022/11/06 11:15:44;;;;;;;11.77;10.77;;;;;;;21.70;50.85;94867.03;5971483;29;103414;-70
2022/11/06 11:18:49;;;;;;;12.60;10.63;;;;;;;21.74;52.86;94866.09;5967698;29;103989;-70
2022/11/06 11:21:54;;;;;;;12.20;10.83;;;;;;;21.80;52.93;94862.19;5966179;29;103288;-69
2022/11/06 11:25:02;;;;;;;12.90;11.50;;;;;;;21.85;53.10;94864.00;5972970;29;103890;-71
2022/11/06 11:28:05;;;;;;;16.90;11.10;;;;;;;21.90;52.01;94863.84;5971602;29;103506;-69
2022/11/06 11:31:12;;;;;;;13.70;11.23;;;;;;;21.99;51.83;94866.53;5963293;29;105459;-71
2022/11/06 11:34:20;;;;;;;21.83;11.60;;;;;;;22.14;52.16;94857.31;5973987;29;104255;-71
2022/11/06 11:37:27;;;;;;;17.47;10.80;;;;;;;22.03;52.44;94862.94;5967380;29;104124;-71
2022/11/06 11:40:35;;;;;;;14.90;10.47;;;;;;;21.90;51.81;94855.84;5970408;29;103808;-71
2022/11/06 11:43:41;;;;;;;13.03;10.30;;;;;;;21.86;51.97;94860.25;5960806;29;103627;-71
2022/11/06 11:46:50;;;;;;;13.13;10.40;;;;;;;21.83;51.61;94852.84;5963881;29;103778;-72
2022/11/06 11:49:53;;;;;;;15.70;9.50;;;;;;;21.80;51.07;94856.88;5969597;29;107424;-70
2022/11/06 11:53:00;;;;;;;12.40;8.87;;;;;;;21.70;50.09;94857.16;5963766;29;103913;-70
2022/11/06 11:56:16;;;;;;;11.47;8.70;;;;;;;21.67;49.77;94859.63;5963064;29;103677;-70
2022/11/06 11:59:44;;;;;;;10.63;8.80;;;;;;;21.63;48.95;94851.47;5966710;29;103767;-70
2022/11/06 12:02:53;;;;;;;14.17;8.90;;;;;;;21.66;49.09;94860.72;5961239;29;103778;-70
2022/11/06 12:06:07;;;;;;;9.90;9.00;;;;;;;21.68;50.12;94858.56;5957634;29;103807;-70
2022/11/06 12:09:13;;;;;;;11.30;9.23;;;;;;;21.64;49.96;94854.94;5968517;29;103853;-66
2022/11/06 12:12:22;;;;;;;14.03;9.23;;;;;;;21.69;50.21;94852.94;5969875;29;103832;-67
2022/11/06 12:15:28;;;;;;;11.87;8.60;;;;;;;21.69;49.24;94850.28;5971320;29;103878;-65
2022/11/06 12:18:35;;;;;;;11.60;7.80;;;;;;;21.70;49.05;94846.50;5979268;29;104916;-66
2022/11/06 12:21:41;;;;;;;8.83;8.03;;;;;;;21.68;47.96;94853.25;5970092;29;103891;-66
2022/11/06 12:24:51;;;;;;;9.00;8.20;;;;;;;21.74;48.99;94857.34;5966930;29;103722;-66
2022/11/06 12:27:57;;;;;;;8.87;8.07;;;;;;;21.77;49.51;94851.38;5958811;29;104877;-65
2022/11/06 12:31:06;;;;;;;8.27;7.43;;;;;;;21.79;49.56;94847.31;5970555;29;103912;-66
2022/11/06 12:34:19;;;;;;;11.13;7.57;;;;;;;21.80;49.15;94846.22;5959652;29;104375;-65
2022/11/06 12:37:29;;;;;;;10.00;8.73;;;;;;;21.82;49.10;94851.28;5969248;29;104088;-65
2022/11/06 12:40:38;;;;;;;9.73;7.83;;;;;;;21.84;49.54;94850.97;5956877;29;104647;-66
2022/11/06 12:43:44;;;;;;;9.50;7.67;;;;;;;21.83;49.15;94858.16;5960654;29;104213;-66
2022/11/06 12:46:54;;;;;;;8.60;7.80;;;;;;;21.85;49.14;94857.88;5965778;29;105206;-65
2022/11/06 12:50:15;;;;;;;8.57;6.80;;;;;;;21.84;49.03;94854.41;5970211;29;103771;-65
2022/11/06 12:53:50;;;;;;;8.50;7.30;;;;;;;21.83;48.81;94850.19;5959805;29;104000;-64
2022/11/06 12:57:01;;;;;;;8.43;7.63;;;;;;;21.82;49.09;94853.94;5958719;29;106287;-65
2022/11/06 13:00:11;;;;;;;8.10;7.40;;;;;;;21.81;49.24;94852.34;5968209;29;103870;-66
2022/11/06 13:03:37;;;;;;;7.43;6.70;;;;;;;21.80;48.44;94856.09;5953750;29;103854;-65
2022/11/06 13:07:19;;;;;;;7.63;6.93;;;;;;;21.80;48.90;94854.22;5968656;29;103692;-66
2022/11/06 13:10:33;;;;;;;7.10;6.40;;;;;;;21.81;48.86;94863.00;5962534;29;103923;-65
2022/11/06 13:13:47;;;;;;;8.40;6.70;;;;;;;21.83;49.02;94871.47;5958550;29;103763;-69
2022/11/06 13:16:59;;;;;;;7.43;6.80;;;;;;;21.83;48.77;94874.16;5965478;29;103663;-68
2022/11/06 13:20:13;;;;;;;7.10;6.50;;;;;;;21.81;48.34;94869.09;5969729;29;103702;-67
2022/11/06 13:23:24;;;;;;;7.60;6.90;;;;;;;21.82;48.83;94877.91;5965918;29;103755;-68
2022/11/06 13:26:37;;;;;;;7.10;6.50;;;;;;;21.83;48.59;94871.47;5949947;29;104339;-68
2022/11/06 13:29:42;;;;;;;8.23;7.43;;;;;;;21.84;48.99;94877.59;5969289;29;103825;-67
2022/11/06 13:32:59;;;;;;;7.10;6.37;;;;;;;21.83;48.66;94870.69;5970271;29;103506;-66
2022/11/06 13:36:02;;;;;;;7.07;6.37;;;;;;;21.81;48.84;94881.63;5965211;29;103675;-69
2022/11/06 13:39:17;;;;;;;6.90;6.27;;;;;;;21.79;48.85;94881.16;5966005;29;103962;-68
2022/11/06 13:42:24;;;;;;;6.63;6.10;;;;;;;21.80;49.10;94882.72;5970383;29;103692;-68
2022/11/06 13:45:32;;;;;;;8.00;6.60;;;;;;;21.80;48.99;94883.50;5970875;29;103780;-68
2022/11/06 13:48:43;;;;;;;7.03;6.37;;;;;;;21.79;49.10;94887.28;5962195;29;107839;-68
2022/11/06 13:51:52;;;;;;;6.03;5.53;;;;;;;21.79;48.61;94891.81;5970624;29;103966;-68
2022/11/06 13:55:10;;;;;;;6.53;5.90;;;;;;;21.79;48.79;94881.16;5970575;29;103730;-68
2022/11/06 13:58:27;;;;;;;6.20;5.70;;;;;;;21.78;48.59;94883.03;5968402;29;103896;-67
2022/11/06 14:01:45;;;;;;;6.70;6.20;;;;;;;21.78;48.81;94884.91;5962959;29;104686;-68
2022/11/06 14:05:23;;;;;;;6.37;5.90;;;;;;;21.80;48.51;94888.84;5969878;29;104289;-67
2022/11/06 14:08:30;;;;;;;5.97;5.47;;;;;;;21.79;48.91;94889.16;5970943;29;103896;-68
2022/11/06 14:11:38;;;;;;;6.90;6.37;;;;;;;21.79;48.82;94883.81;5964576;29;103944;-68
2022/11/06 14:14:41;;;;;;;6.93;6.30;;;;;;;21.79;48.90;94891.81;5973868;29;103851;-68
2022/11/06 14:17:55;;;;;;;6.67;6.17;;;;;;;21.79;49.39;94889.16;5974378;29;103781;-68
2022/11/06 14:21:27;;;;;;;7.10;6.40;;;;;;;21.78;48.73;94896.34;5971900;29;104029;-67